createdAt,value
2022-10-05T00:01:01.888Z,2.53
2022-10-05T00:06:04.330Z,3.60
2022-10-05T00:11:13.666Z,6.15
2022-10-05T00:16:19.720Z,2.65
2022-10-05T00:21:25.695Z,1.55
2022-10-05T00:26:33.954Z,3.55
2022-10-05T00:31:36.719Z,3.05
2022-10-05T00:36:40.599Z,3.72
2022-10-05T00:42:17.796Z,2.38
2022-10-05T00:47:43.330Z,5.47
2022-10-05T00:52:54.359Z,4.00
2022-10-05T00:58:22.072Z,2.15
2022-10-05T01:03:39.752Z,3.33
2022-10-05T01:08:59.888Z,5.38
2022-10-05T01:14:20.855Z,1.40
2022-10-05T01:19:44.947Z,2.72
2022-10-05T01:25:08.596Z,2.00
2022-10-05T01:30:20.081Z,3.47
2022-10-05T01:35:47.913Z,1.70
2022-10-05T01:41:13.716Z,3.22
2022-10-05T01:46:21.919Z,4.20
2022-10-05T01:51:53.676Z,5.40
2022-10-05T01:57:22.070Z,3.22
2022-10-05T02:02:26.463Z,3.08
2022-10-05T02:07:40.407Z,1.58
2022-10-05T02:12:45.523Z,9.27
2022-10-05T02:17:51.433Z,7.40
2022-10-05T02:23:05.886Z,2.90
2022-10-05T02:28:17.189Z,3.90
2022-10-05T02:33:30.801Z,1.77
2022-10-05T02:38:50.135Z,5.47
2022-10-05T02:44:15.374Z,4.53
2022-10-05T02:49:36.446Z,3.25
2022-10-05T02:55:01.192Z,2.28
2022-10-05T03:00:23.925Z,2.83
2022-10-05T03:05:28.585Z,5.75
2022-10-05T03:10:36.124Z,8.48
2022-10-05T03:15:59.170Z,1.73
2022-10-05T03:21:22.489Z,6.00
2022-10-05T03:26:53.938Z,7.82
2022-10-05T03:32:09.866Z,6.38
2022-10-05T03:37:23.407Z,4.28
2022-10-05T03:42:45.652Z,1.98
2022-10-05T03:48:01.825Z,5.90
2022-10-05T03:53:12.381Z,4.60
2022-10-05T03:58:22.005Z,12.43
2022-10-05T04:03:40.001Z,5.88
2022-10-05T04:09:00.813Z,4.88
2022-10-05T04:14:24.688Z,4.53
2022-10-05T04:19:38.952Z,10.10
2022-10-05T04:24:56.746Z,7.07
2022-10-05T04:30:09.202Z,15.23
2022-10-05T04:35:14.540Z,9.85
2022-10-05T04:40:42.845Z,12.55
2022-10-05T04:46:22.683Z,11.57
2022-10-05T04:51:38.782Z,13.40
2022-10-05T04:56:46.092Z,8.02
2022-10-05T05:02:07.096Z,7.80
2022-10-05T05:07:36.034Z,8.20
2022-10-05T05:13:15.592Z,4.10
2022-10-05T05:18:41.637Z,2.92
2022-10-05T05:24:39.898Z,10.13
2022-10-05T05:29:54.153Z,14.77
2022-10-05T05:35:14.847Z,13.68
2022-10-05T05:40:24.327Z,20.48
2022-10-05T05:46:02.769Z,14.43
2022-10-05T05:51:26.637Z,8.73
2022-10-05T05:56:46.165Z,12.25
2022-10-05T06:01:54.484Z,21.35
2022-10-05T06:07:01.628Z,8.65
2022-10-05T06:12:10.709Z,16.65
2022-10-05T06:17:55.267Z,15.00
2022-10-05T06:23:03.457Z,10.82
2022-10-05T06:28:18.558Z,13.68
2022-10-05T06:33:39.950Z,10.07
2022-10-05T06:38:44.856Z,7.75
2022-10-05T06:44:10.259Z,4.57
2022-10-05T06:49:19.860Z,4.40
2022-10-05T06:59:53.617Z,4.60
2022-10-05T07:05:26.622Z,2.00
2022-10-05T07:10:41.201Z,3.17
2022-10-05T07:16:07.829Z,3.53
2022-10-05T07:21:40.074Z,1.42
2022-10-05T07:26:58.187Z,4.57
2022-10-05T07:32:15.497Z,3.13
2022-10-05T07:37:43.825Z,3.90
2022-10-05T07:42:57.871Z,2.10
2022-10-05T07:48:14.423Z,1.88
2022-10-05T07:53:33.488Z,2.90
2022-10-05T07:58:43.494Z,2.22
2022-10-05T08:03:57.849Z,4.72
2022-10-05T08:09:24.596Z,3.00
2022-10-05T08:14:53.587Z,1.77
2022-10-05T08:20:33.773Z,1.90
2022-10-05T08:25:46.733Z,5.07
2022-10-05T08:30:57.499Z,1.42
2022-10-05T08:36:12.285Z,4.32
2022-10-05T08:41:17.270Z,6.00
2022-10-05T08:46:22.432Z,2.22
2022-10-05T08:51:34.967Z,5.28
2022-10-05T08:56:51.779Z,3.33
2022-10-05T09:02:30.471Z,3.95
2022-10-05T09:07:46.210Z,1.70
2022-10-05T09:12:54.145Z,7.30
2022-10-05T09:18:18.092Z,4.20
2022-10-05T09:23:43.249Z,1.58
2022-10-05T09:28:47.967Z,10.20
2022-10-05T09:33:53.641Z,4.55
2022-10-05T09:39:05.234Z,5.32
2022-10-05T09:44:38.113Z,3.97
2022-10-05T09:50:18.355Z,3.00
2022-10-05T09:55:43.999Z,4.18
2022-10-05T10:01:33.078Z,3.75
2022-10-05T10:07:07.335Z,3.33
2022-10-05T10:12:21.395Z,3.97
2022-10-05T10:18:00.010Z,6.95
2022-10-05T10:23:26.933Z,5.07
2022-10-05T10:28:48.097Z,2.83
2022-10-05T10:34:10.602Z,4.22
2022-10-05T10:39:24.701Z,2.97
2022-10-05T10:44:55.414Z,3.33
2022-10-05T10:50:19.076Z,4.05
2022-10-05T10:55:45.771Z,4.60
2022-10-05T11:01:03.932Z,1.42
2022-10-05T11:06:35.339Z,1.70
2022-10-05T11:12:09.748Z,1.80
2022-10-05T11:17:35.856Z,2.10
2022-10-05T11:22:53.312Z,2.90
2022-10-05T11:27:55.682Z,3.35
2022-10-05T11:33:03.857Z,1.60
2022-10-05T11:38:21.012Z,1.50
2022-10-05T11:43:48.107Z,1.10
2022-10-05T11:49:00.910Z,6.13
2022-10-05T11:54:20.556Z,1.55
2022-10-05T11:59:27.252Z,4.63
2022-10-05T12:04:47.473Z,4.78
2022-10-05T12:10:11.034Z,1.73
2022-10-05T12:15:25.270Z,3.10
2022-10-05T12:20:41.879Z,1.40
2022-10-05T12:26:11.510Z,2.55
2022-10-05T12:31:49.011Z,2.38
2022-10-05T12:37:04.043Z,0.88
2022-10-05T12:42:40.883Z,3.53
2022-10-05T12:48:07.818Z,4.85
2022-10-05T12:53:29.343Z,4.00
2022-10-05T12:59:00.287Z,1.88
2022-10-05T13:04:29.100Z,4.68
2022-10-05T13:10:00.206Z,2.78
2022-10-05T13:15:16.019Z,2.72
2022-10-05T13:20:34.263Z,5.65
2022-10-05T13:25:44.038Z,3.03
2022-10-05T13:31:15.734Z,7.32
2022-10-05T13:37:16.912Z,3.22
2022-10-05T13:42:38.633Z,2.53
2022-10-05T13:48:28.782Z,1.23
2022-10-05T13:53:49.249Z,1.65
2022-10-05T13:59:33.676Z,1.42
2022-10-05T14:04:58.791Z,3.35
2022-10-05T14:10:05.355Z,6.85
2022-10-05T14:15:29.111Z,1.77
2022-10-05T14:20:34.829Z,2.38
2022-10-05T14:25:50.773Z,4.32
2022-10-05T14:31:14.056Z,2.50
2022-10-05T14:36:35.465Z,2.75
2022-10-05T14:41:48.050Z,2.05
2022-10-05T14:46:55.922Z,3.60
2022-10-05T14:51:59.043Z,1.50
2022-10-05T14:57:13.032Z,2.47
2022-10-05T15:02:36.496Z,3.35
2022-10-05T15:07:44.496Z,5.00
2022-10-05T15:12:48.779Z,2.60
2022-10-05T15:17:55.743Z,3.65
2022-10-05T15:23:35.627Z,4.05
2022-10-05T15:28:49.682Z,3.97
2022-10-05T15:34:18.663Z,4.32
2022-10-05T15:39:37.672Z,3.83
2022-10-05T15:49:51.009Z,9.57
2022-10-05T15:55:09.104Z,6.65
2022-10-05T16:00:14.053Z,4.50
2022-10-05T16:05:56.660Z,4.13
2022-10-05T16:10:59.922Z,3.65
2022-10-05T16:16:21.612Z,9.77
2022-10-05T16:21:32.389Z,19.73
2022-10-05T16:26:46.203Z,11.68
2022-10-05T16:32:00.874Z,7.70
2022-10-05T16:37:41.699Z,18.45
2022-10-05T16:43:09.666Z,10.13
2022-10-05T16:48:21.087Z,20.73
2022-10-05T16:53:47.787Z,16.92
2022-10-05T16:58:58.834Z,18.88
2022-10-05T17:04:29.905Z,3.35
2022-10-05T17:09:50.804Z,4.30
2022-10-05T17:15:29.654Z,8.40
2022-10-05T17:20:58.497Z,9.80
2022-10-05T17:26:28.321Z,13.10
2022-10-05T17:36:43.653Z,10.05
2022-10-05T17:41:47.204Z,30.92
2022-10-05T17:46:51.938Z,26.38
2022-10-05T17:52:12.889Z,39.60
2022-10-05T17:57:23.128Z,36.90
2022-10-05T18:02:43.141Z,60.22
2022-10-05T18:07:50.544Z,18.13
2022-10-05T18:13:05.045Z,33.65
2022-10-05T18:18:55.089Z,20.70
2022-10-05T18:24:00.025Z,34.73
2022-10-05T18:29:39.920Z,26.27
2022-10-05T18:35:13.670Z,24.15
2022-10-05T18:40:56.022Z,10.07
2022-10-05T18:46:04.656Z,25.08
2022-10-05T18:51:41.920Z,24.73
2022-10-05T18:56:46.947Z,11.63
2022-10-05T19:02:01.592Z,12.23
2022-10-05T19:07:24.618Z,13.32
2022-10-05T19:12:32.490Z,20.38
2022-10-05T19:17:49.494Z,15.13
2022-10-05T19:23:10.268Z,15.07
2022-10-05T19:28:18.477Z,20.02
2022-10-05T19:33:29.331Z,14.65
2022-10-05T19:39:09.632Z,13.05
2022-10-05T19:44:28.384Z,17.27
2022-10-05T19:49:50.611Z,10.63
2022-10-05T19:55:21.787Z,10.80
2022-10-05T20:00:35.722Z,10.57
2022-10-05T20:05:38.441Z,6.75
2022-10-05T20:10:40.653Z,12.77
2022-10-05T20:16:27.924Z,15.35
2022-10-05T20:21:52.415Z,8.77
2022-10-05T20:27:16.179Z,10.15
2022-10-05T20:32:18.902Z,10.15
2022-10-05T20:37:21.226Z,11.45
2022-10-05T20:42:24.349Z,7.75
2022-10-05T20:47:27.338Z,13.30
2022-10-05T20:52:29.819Z,12.13
2022-10-05T20:57:32.116Z,10.20
2022-10-05T21:02:34.442Z,11.68
2022-10-05T21:07:36.899Z,7.80
2022-10-05T21:12:39.100Z,5.38
2022-10-05T21:17:41.629Z,12.45
2022-10-05T21:22:44.164Z,8.05
2022-10-05T21:27:49.159Z,7.35
2022-10-05T21:32:51.441Z,8.15
2022-10-05T21:37:53.958Z,13.38
2022-10-05T21:42:56.134Z,13.07
2022-10-05T21:47:58.998Z,7.18
2022-10-05T21:53:04.298Z,11.65
2022-10-05T21:58:06.858Z,10.38
2022-10-05T22:03:09.302Z,7.45
2022-10-05T22:08:25.812Z,5.90
2022-10-05T22:13:39.581Z,6.70
2022-10-05T22:18:43.175Z,8.68
2022-10-05T22:23:46.698Z,15.65
2022-10-05T22:28:49.360Z,12.15
2022-10-05T22:33:52.076Z,12.02
2022-10-05T22:38:54.548Z,9.38
2022-10-05T22:43:56.871Z,5.88
2022-10-05T22:48:59.439Z,5.28
2022-10-05T22:54:02.260Z,6.68
2022-10-05T22:59:04.678Z,18.65
2022-10-05T23:04:09.135Z,7.63
2022-10-05T23:09:11.387Z,7.78
2022-10-05T23:14:13.764Z,8.60
2022-10-05T23:19:16.210Z,5.22
2022-10-05T23:24:18.556Z,13.18
2022-10-05T23:29:20.723Z,5.30
2022-10-05T23:34:22.926Z,5.47
2022-10-05T23:39:25.191Z,8.25
2022-10-05T23:44:27.437Z,3.50
2022-10-05T23:49:29.744Z,8.32
2022-10-05T23:54:31.894Z,8.00
2022-10-05T23:59:34.237Z,4.70
